メインページ
METAR-TAF:

METAR-TAF

空港 :

エル・アルト国際空港

ラパス, ボリビア

緯度: 16-31S, 経度: 068-11W, 海抜: 4058m

現時点の気象観測

当レポートは25分前の21:00(UTC)に作成
北西の風 6kt、南/南西からの間で変化する
気温
気圧 1037 hPa
視程10km以上
高度2300ftの雲はほとんどない
高度2500ftの雲はほとんどない, 積乱雲.

METAR: SLLP 162100Z 31006KT 200V360 9999 FEW023 FEW025CB 14/M12Q1037

時間: 17:25 (21:25 UTC)

予報

当レポートは5時間25分前の16:00(UTC)に作成
予報は16日の 18時(UTC)から 17日の 18時(UTC)まで有効
西の風 10kt
視程10km以上
高度2000ftの雲はほとんどない
16日の 19時(UTC)から 16日の 23時(UTC)まで一時的に
南東の風 10kt
高度2500ftの雲はほとんどない, 積乱雲.
17日の 00時(UTC)から 17日の 02時(UTC)まで徐々に
東/北東の風 6kt
17日の 04時(UTC)から 17日の 07時(UTC)まで徐々に
視程: 3000m
近辺で霧
17日の 11時(UTC)から 17日の 13時(UTC)まで徐々に
視程10km以上
17日の 15時(UTC)から 17日の 17時(UTC)まで徐々に
南東の風 10kt

TAF: SLLP 161600Z 1618/1718 26010KT 9999 FEW020 TX15/1620Z TNM04/1710Z TEMPO 1619/1623 13010KT FEW025CB BECMG 1700/1702 06006KT BECMG 1704/1707 3000E VCFG BECMG 1711/1713 9999 NSW BECMG 1715/1717 13010KT

4,000以上の空港の気象観測と天気予報(METAR報とTAF報)

利用可能な観測所は地図上に黄色い丸と赤い丸で示す。

丸の上にカーソルを重ねると観測所名を参照できる。

次にクリックすると気象観測と天気予報を参照できる。

マップの切り替え:黒色「×」印の緑ボタンをクリックして拡大、「-」印の緑ボタンをクリックして縮小、緑色の三角印をクリックして隣りの地図に切り替え


METAR-TAF: